sensor_id;sensor_type;location;lat;lon;timestamp;pressure;altitude;pressure_sealevel;temperature;humidity
35655;BME280;21773;50.010;19.972;2023-08-06T00:00:38;97250.00;;;24.19;100.00
35655;BME280;21773;50.010;19.972;2023-08-06T00:03:43;97234.31;;;24.20;100.00
35655;BME280;21773;50.010;19.972;2023-08-06T00:06:46;97249.69;;;24.21;100.00
35655;BME280;21773;50.010;19.972;2023-08-06T00:09:50;97273.78;;;24.24;100.00
35655;BME280;21773;50.010;19.972;2023-08-06T00:12:53;97279.38;;;24.27;100.00
35655;BME280;21773;50.010;19.972;2023-08-06T00:16:08;97251.50;;;24.29;100.00
35655;BME280;21773;50.010;19.972;2023-08-06T00:19:12;97221.09;;;24.25;100.00
35655;BME280;21773;50.010;19.972;2023-08-06T00:22:16;97223.28;;;24.20;100.00
35655;BME280;21773;50.010;19.972;2023-08-06T00:25:19;97254.59;;;24.15;100.00
35655;BME280;21773;50.010;19.972;2023-08-06T00:28:22;97244.28;;;24.12;100.00
35655;BME280;21773;50.010;19.972;2023-08-06T00:31:25;97247.13;;;24.15;100.00
35655;BME280;21773;50.010;19.972;2023-08-06T00:34:30;97251.41;;;24.13;100.00
35655;BME280;21773;50.010;19.972;2023-08-06T00:37:33;97251.66;;;24.08;100.00
35655;BME280;21773;50.010;19.972;2023-08-06T00:40:36;97272.66;;;24.00;100.00
35655;BME280;21773;50.010;19.972;2023-08-06T00:43:40;97307.75;;;24.03;100.00
35655;BME280;21773;50.010;19.972;2023-08-06T00:46:43;97277.09;;;24.05;100.00
35655;BME280;21773;50.010;19.972;2023-08-06T00:49:48;97336.19;;;24.07;100.00
35655;BME280;21773;50.010;19.972;2023-08-06T00:52:52;97292.13;;;24.07;100.00
35655;BME280;21773;50.010;19.972;2023-08-06T00:55:55;97195.88;;;24.11;100.00
35655;BME280;21773;50.010;19.972;2023-08-06T00:58:59;97141.16;;;24.09;100.00
35655;BME280;21773;50.010;19.972;2023-08-06T01:02:02;97227.31;;;24.10;100.00
35655;BME280;21773;50.010;19.972;2023-08-06T01:05:07;97283.91;;;23.95;100.00
35655;BME280;21773;50.010;19.972;2023-08-06T01:08:21;97322.91;;;23.85;100.00
35655;BME280;21773;50.010;19.972;2023-08-06T01:11:33;97353.31;;;23.64;100.00
35655;BME280;21773;50.010;19.972;2023-08-06T01:14:47;97363.28;;;23.45;100.00
35655;BME280;21773;50.010;19.972;2023-08-06T01:17:53;97354.78;;;23.62;100.00
35655;BME280;21773;50.010;19.972;2023-08-06T01:20:58;97324.88;;;23.72;100.00
35655;BME280;21773;50.010;19.972;2023-08-06T01:24:01;97522.44;;;23.79;100.00
35655;BME280;21773;50.010;19.972;2023-08-06T01:27:09;97523.09;;;23.76;100.00
35655;BME280;21773;50.010;19.972;2023-08-06T01:30:16;97527.25;;;23.82;100.00
35655;BME280;21773;50.010;19.972;2023-08-06T01:33:21;97504.66;;;23.77;100.00
35655;BME280;21773;50.010;19.972;2023-08-06T01:36:28;97510.25;;;23.80;100.00
35655;BME280;21773;50.010;19.972;2023-08-06T01:39:34;97511.00;;;23.89;100.00
35655;BME280;21773;50.010;19.972;2023-08-06T01:42:38;97511.09;;;23.93;100.00
35655;BME280;21773;50.010;19.972;2023-08-06T01:45:42;97513.31;;;23.99;100.00
35655;BME280;21773;50.010;19.972;2023-08-06T01:48:45;97497.94;;;23.98;100.00
35655;BME280;21773;50.010;19.972;2023-08-06T01:51:50;97508.81;;;24.07;100.00
35655;BME280;21773;50.010;19.972;2023-08-06T01:54:53;97500.91;;;24.05;100.00
35655;BME280;21773;50.010;19.972;2023-08-06T01:57:57;97501.25;;;24.04;100.00
35655;BME280;21773;50.010;19.972;2023-08-06T02:01:01;97499.75;;;24.06;100.00
35655;BME280;21773;50.010;19.972;2023-08-06T02:04:04;97494.84;;;24.12;100.00
35655;BME280;21773;50.010;19.972;2023-08-06T02:07:08;97500.44;;;24.15;100.00
35655;BME280;21773;50.010;19.972;2023-08-06T02:10:12;97491.66;;;24.22;100.00
35655;BME280;21773;50.010;19.972;2023-08-06T02:13:15;97491.75;;;24.26;100.00
35655;BME280;21773;50.010;19.972;2023-08-06T02:16:18;97496.25;;;24.30;100.00
35655;BME280;21773;50.010;19.972;2023-08-06T02:19:22;97490.06;;;24.33;100.00
35655;BME280;21773;50.010;19.972;2023-08-06T02:22:26;97490.28;;;24.40;100.00
35655;BME280;21773;50.010;19.972;2023-08-06T02:25:30;97489.81;;;24.38;100.00
35655;BME280;21773;50.010;19.972;2023-08-06T02:28:34;97486.38;;;24.41;100.00
35655;BME280;21773;50.010;19.972;2023-08-06T02:31:37;97503.38;;;24.43;100.00
35655;BME280;21773;50.010;19.972;2023-08-06T02:34:40;97509.66;;;24.44;100.00
35655;BME280;21773;50.010;19.972;2023-08-06T02:37:45;97513.22;;;24.44;100.00
35655;BME280;21773;50.010;19.972;2023-08-06T02:40:48;97519.19;;;24.46;100.00
35655;BME280;21773;50.010;19.972;2023-08-06T02:43:52;97512.53;;;24.47;100.00
35655;BME280;21773;50.010;19.972;2023-08-06T02:46:56;97503.91;;;24.49;100.00
35655;BME280;21773;50.010;19.972;2023-08-06T02:49:59;97498.97;;;24.54;100.00
35655;BME280;21773;50.010;19.972;2023-08-06T02:53:05;97515.16;;;24.56;100.00
35655;BME280;21773;50.010;19.972;2023-08-06T02:56:08;97514.03;;;24.57;100.00
35655;BME280;21773;50.010;19.972;2023-08-06T02:59:32;97513.56;;;24.55;100.00
35655;BME280;21773;50.010;19.972;2023-08-06T03:02:55;97523.44;;;24.56;100.00
35655;BME280;21773;50.010;19.972;2023-08-06T03:06:22;97520.22;;;24.54;100.00
35655;BME280;21773;50.010;19.972;2023-08-06T03:09:29;97521.38;;;24.53;100.00
35655;BME280;21773;50.010;19.972;2023-08-06T03:12:33;97528.47;;;24.54;100.00
35655;BME280;21773;50.010;19.972;2023-08-06T03:15:38;97522.97;;;24.54;100.00
35655;BME280;21773;50.010;19.972;2023-08-06T03:18:43;97523.44;;;24.56;100.00
35655;BME280;21773;50.010;19.972;2023-08-06T03:21:47;97520.34;;;24.57;100.00
35655;BME280;21773;50.010;19.972;2023-08-06T03:24:52;97510.91;;;24.58;100.00
35655;BME280;21773;50.010;19.972;2023-08-06T03:27:58;97498.31;;;24.57;100.00
35655;BME280;21773;50.010;19.972;2023-08-06T03:31:03;97494.38;;;24.58;100.00
35655;BME280;21773;50.010;19.972;2023-08-06T03:34:14;97500.00;;;24.62;100.00
35655;BME280;21773;50.010;19.972;2023-08-06T03:37:17;97494.03;;;24.60;100.00
35655;BME280;21773;50.010;19.972;2023-08-06T03:40:22;97496.34;;;24.58;100.00
35655;BME280;21773;50.010;19.972;2023-08-06T03:43:25;97489.66;;;24.59;100.00
35655;BME280;21773;50.010;19.972;2023-08-06T03:46:29;97482.44;;;24.54;100.00
35655;BME280;21773;50.010;19.972;2023-08-06T03:49:35;97479.34;;;24.56;100.00
35655;BME280;21773;50.010;19.972;2023-08-06T03:52:39;97482.56;;;24.58;100.00
35655;BME280;21773;50.010;19.972;2023-08-06T03:55:43;97469.47;;;24.55;100.00
35655;BME280;21773;50.010;19.972;2023-08-06T03:58:47;97466.28;;;24.53;100.00
35655;BME280;21773;50.010;19.972;2023-08-06T04:01:50;97462.47;;;24.57;100.00
35655;BME280;21773;50.010;19.972;2023-08-06T04:04:54;97450.28;;;24.58;100.00
35655;BME280;21773;50.010;19.972;2023-08-06T04:07:57;97450.41;;;24.62;100.00
35655;BME280;21773;50.010;19.972;2023-08-06T04:11:03;97451.09;;;24.59;100.00
35655;BME280;21773;50.010;19.972;2023-08-06T04:14:06;97450.66;;;24.57;100.00
35655;BME280;21773;50.010;19.972;2023-08-06T04:17:09;97461.69;;;24.57;100.00
35655;BME280;21773;50.010;19.972;2023-08-06T04:20:13;97454.56;;;24.56;100.00
35655;BME280;21773;50.010;19.972;2023-08-06T04:23:16;97452.28;;;24.58;100.00
35655;BME280;21773;50.010;19.972;2023-08-06T04:26:22;97433.22;;;24.53;100.00
35655;BME280;21773;50.010;19.972;2023-08-06T04:29:25;97462.59;;;24.61;100.00
35655;BME280;21773;50.010;19.972;2023-08-06T04:32:30;97453.97;;;24.63;100.00
35655;BME280;21773;50.010;19.972;2023-08-06T04:35:33;97449.72;;;24.65;100.00
35655;BME280;21773;50.010;19.972;2023-08-06T04:38:36;97449.72;;;24.65;100.00
35655;BME280;21773;50.010;19.972;2023-08-06T04:41:41;97451.31;;;24.66;100.00
35655;BME280;21773;50.010;19.972;2023-08-06T04:44:45;97445.34;;;24.64;100.00
35655;BME280;21773;50.010;19.972;2023-08-06T04:47:49;97442.25;;;24.66;100.00
35655;BME280;21773;50.010;19.972;2023-08-06T04:50:52;97443.88;;;24.67;100.00
35655;BME280;21773;50.010;19.972;2023-08-06T04:53:56;97448.47;;;24.63;100.00
35655;BME280;21773;50.010;19.972;2023-08-06T04:57:01;97442.25;;;24.66;100.00
35655;BME280;21773;50.010;19.972;2023-08-06T05:00:05;97437.53;;;24.66;100.00
35655;BME280;21773;50.010;19.972;2023-08-06T05:03:09;97438.34;;;24.67;100.00
35655;BME280;21773;50.010;19.972;2023-08-06T05:06:12;97438.34;;;24.67;100.00
35655;BME280;21773;50.010;19.972;2023-08-06T05:09:15;97441.53;;;24.69;100.00
35655;BME280;21773;50.010;19.972;2023-08-06T05:12:20;97416.75;;;24.69;100.00
35655;BME280;21773;50.010;19.972;2023-08-06T05:15:23;97407.31;;;24.70;100.00
35655;BME280;21773;50.010;19.972;2023-08-06T05:18:27;97416.50;;;24.74;100.00
35655;BME280;21773;50.010;19.972;2023-08-06T05:21:32;97415.00;;;24.76;100.00
35655;BME280;21773;50.010;19.972;2023-08-06T05:24:36;97403.28;;;24.79;100.00
35655;BME280;21773;50.010;19.972;2023-08-06T05:27:40;97403.38;;;24.83;100.00
35655;BME280;21773;50.010;19.972;2023-08-06T05:30:43;97392.25;;;24.91;100.00
35655;BME280;21773;50.010;19.972;2023-08-06T05:33:46;97400.94;;;24.93;100.00
35655;BME280;21773;50.010;19.972;2023-08-06T05:36:50;97392.00;;;24.96;100.00
35655;BME280;21773;50.010;19.972;2023-08-06T05:39:54;97386.47;;;24.96;100.00
35655;BME280;21773;50.010;19.972;2023-08-06T05:42:59;97384.16;;;24.98;100.00
35655;BME280;21773;50.010;19.972;2023-08-06T05:46:02;97376.25;;;24.97;100.00
35655;BME280;21773;50.010;19.972;2023-08-06T05:49:06;97375.19;;;25.01;100.00
35655;BME280;21773;50.010;19.972;2023-08-06T05:52:10;97368.50;;;25.02;100.00
35655;BME280;21773;50.010;19.972;2023-08-06T05:55:13;97372.97;;;25.07;100.00
35655;BME280;21773;50.010;19.972;2023-08-06T05:58:17;97367.44;;;25.07;100.00
35655;BME280;21773;50.010;19.972;2023-08-06T06:01:22;97367.09;;;25.09;100.00
35655;BME280;21773;50.010;19.972;2023-08-06T06:04:25;97363.19;;;25.10;100.00
35655;BME280;21773;50.010;19.972;2023-08-06T06:07:28;97357.69;;;25.10;100.00
35655;BME280;21773;50.010;19.972;2023-08-06T06:10:31;97344.16;;;25.05;100.00
35655;BME280;21773;50.010;19.972;2023-08-06T06:13:36;97344.25;;;25.08;100.00
35655;BME280;21773;50.010;19.972;2023-08-06T06:16:39;97343.44;;;25.08;100.00
35655;BME280;21773;50.010;19.972;2023-08-06T06:19:42;97337.56;;;25.09;100.00
35655;BME280;21773;50.010;19.972;2023-08-06T06:22:46;97334.72;;;25.06;100.00
35655;BME280;21773;50.010;19.972;2023-08-06T06:25:49;97324.78;;;25.01;100.00
35655;BME280;21773;50.010;19.972;2023-08-06T06:28:54;97325.81;;;24.96;100.00
35655;BME280;21773;50.010;19.972;2023-08-06T06:31:58;97322.63;;;24.94;100.00
35655;BME280;21773;50.010;19.972;2023-08-06T06:35:01;97316.63;;;24.92;100.00
35655;BME280;21773;50.010;19.972;2023-08-06T06:38:04;97323.34;;;24.91;100.00
35655;BME280;21773;50.010;19.972;2023-08-06T06:41:07;97305.53;;;24.89;100.00
35655;BME280;21773;50.010;19.972;2023-08-06T06:44:13;97323.66;;;24.90;100.00
35655;BME280;21773;50.010;19.972;2023-08-06T06:47:18;97329.41;;;24.85;100.00
35655;BME280;21773;50.010;19.972;2023-08-06T06:50:22;97321.94;;;24.85;100.00
35655;BME280;21773;50.010;19.972;2023-08-06T06:53:26;97316.94;;;24.87;100.00
35655;BME280;21773;50.010;19.972;2023-08-06T06:56:30;97304.50;;;24.81;100.00
35655;BME280;21773;50.010;19.972;2023-08-06T06:59:34;97308.16;;;24.85;100.00
35655;BME280;21773;50.010;19.972;2023-08-06T07:02:37;97301.03;;;24.84;100.00
35655;BME280;21773;50.010;19.972;2023-08-06T07:05:42;97301.63;;;24.90;100.00
35655;BME280;21773;50.010;19.972;2023-08-06T07:08:45;97305.53;;;24.89;100.00
35655;BME280;21773;50.010;19.972;2023-08-06T07:11:48;97313.22;;;24.83;100.00
35655;BME280;21773;50.010;19.972;2023-08-06T07:14:53;97318.28;;;24.81;100.00
35655;BME280;21773;50.010;19.972;2023-08-06T07:17:57;97308.66;;;24.75;100.00
35655;BME280;21773;50.010;19.972;2023-08-06T07:21:00;97301.13;;;24.72;100.00
35655;BME280;21773;50.010;19.972;2023-08-06T07:24:03;97313.63;;;24.70;100.00
35655;BME280;21773;50.010;19.972;2023-08-06T07:27:06;97315.97;;;24.68;100.00
35655;BME280;21773;50.010;19.972;2023-08-06T07:30:11;97317.66;;;24.72;100.00
35655;BME280;21773;50.010;19.972;2023-08-06T07:33:15;97329.75;;;24.68;100.00
35655;BME280;21773;50.010;19.972;2023-08-06T07:36:18;97359.59;;;24.53;100.00
35655;BME280;21773;50.010;19.972;2023-08-06T07:39:21;97364.41;;;24.29;100.00
35655;BME280;21773;50.010;19.972;2023-08-06T07:42:25;97368.19;;;24.00;100.00
35655;BME280;21773;50.010;19.972;2023-08-06T07:45:33;97349.75;;;23.88;100.00
35655;BME280;21773;50.010;19.972;2023-08-06T07:48:37;97349.53;;;23.69;100.00
35655;BME280;21773;50.010;19.972;2023-08-06T07:51:40;97330.72;;;23.47;100.00
35655;BME280;21773;50.010;19.972;2023-08-06T07:54:44;97334.91;;;23.32;100.00
35655;BME280;21773;50.010;19.972;2023-08-06T07:57:47;97326.53;;;23.28;100.00
35655;BME280;21773;50.010;19.972;2023-08-06T08:00:52;97325.16;;;23.22;100.00
35655;BME280;21773;50.010;19.972;2023-08-06T08:03:55;97321.81;;;23.17;100.00
35655;BME280;21773;50.010;19.972;2023-08-06T08:06:58;97315.06;;;23.14;100.00
35655;BME280;21773;50.010;19.972;2023-08-06T08:10:01;97312.59;;;22.88;100.00
35655;BME280;21773;50.010;19.972;2023-08-06T08:13:05;97313.19;;;22.94;100.00
35655;BME280;21773;50.010;19.972;2023-08-06T08:16:10;97311.25;;;22.95;100.00
35655;BME280;21773;50.010;19.972;2023-08-06T08:19:13;97317.28;;;22.76;100.00
35655;BME280;21773;50.010;19.972;2023-08-06T08:22:16;97315.88;;;22.49;100.00
35655;BME280;21773;50.010;19.972;2023-08-06T08:25:20;97328.88;;;22.40;100.00
35655;BME280;21773;50.010;19.972;2023-08-06T08:28:23;97339.25;;;22.34;100.00
35655;BME280;21773;50.010;19.972;2023-08-06T08:31:27;97322.94;;;22.17;100.00
35655;BME280;21773;50.010;19.972;2023-08-06T08:34:31;97324.41;;;22.15;100.00
35655;BME280;21773;50.010;19.972;2023-08-06T08:37:35;97322.25;;;21.99;100.00
35655;BME280;21773;50.010;19.972;2023-08-06T08:40:44;97327.88;;;22.03;100.00
35655;BME280;21773;50.010;19.972;2023-08-06T08:43:50;97330.19;;;21.92;100.00
35655;BME280;21773;50.010;19.972;2023-08-06T08:46:55;97329.91;;;21.85;100.00
35655;BME280;21773;50.010;19.972;2023-08-06T08:50:00;97328.34;;;21.76;100.00
35655;BME280;21773;50.010;19.972;2023-08-06T08:53:03;97321.25;;;21.75;100.00
35655;BME280;21773;50.010;19.972;2023-08-06T08:56:08;97327.94;;;21.86;100.00
35655;BME280;21773;50.010;19.972;2023-08-06T08:59:15;97334.13;;;21.83;100.00
35655;BME280;21773;50.010;19.972;2023-08-06T09:02:21;97310.16;;;21.92;100.00
35655;BME280;21773;50.010;19.972;2023-08-06T09:05:26;97308.53;;;21.99;100.00
35655;BME280;21773;50.010;19.972;2023-08-06T09:08:36;97302.09;;;21.95;100.00
35655;BME280;21773;50.010;19.972;2023-08-06T09:11:43;97306.13;;;21.98;100.00
35655;BME280;21773;50.010;19.972;2023-08-06T09:14:47;97308.41;;;22.17;100.00
35655;BME280;21773;50.010;19.972;2023-08-06T09:17:51;97303.03;;;22.20;100.00
35655;BME280;21773;50.010;19.972;2023-08-06T09:20:55;97274.25;;;22.26;100.00
35655;BME280;21773;50.010;19.972;2023-08-06T09:23:59;97285.63;;;22.37;100.00
35655;BME280;21773;50.010;19.972;2023-08-06T09:27:03;97290.25;;;22.24;100.00
35655;BME280;21773;50.010;19.972;2023-08-06T09:30:07;97305.50;;;22.34;100.00
35655;BME280;21773;50.010;19.972;2023-08-06T09:33:17;97309.75;;;22.31;100.00
35655;BME280;21773;50.010;19.972;2023-08-06T09:36:22;97292.06;;;22.20;100.00
35655;BME280;21773;50.010;19.972;2023-08-06T09:39:29;97312.56;;;22.02;100.00
35655;BME280;21773;50.010;19.972;2023-08-06T09:42:37;97297.91;;;21.89;100.00
35655;BME280;21773;50.010;19.972;2023-08-06T09:45:41;97298.31;;;21.79;100.00
35655;BME280;21773;50.010;19.972;2023-08-06T09:48:47;97302.53;;;21.77;100.00
35655;BME280;21773;50.010;19.972;2023-08-06T09:51:51;97301.25;;;21.74;100.00
35655;BME280;21773;50.010;19.972;2023-08-06T09:54:58;97308.88;;;21.69;100.00
35655;BME280;21773;50.010;19.972;2023-08-06T09:58:02;97324.34;;;21.73;100.00
35655;BME280;21773;50.010;19.972;2023-08-06T10:01:08;97303.72;;;21.67;100.00
35655;BME280;21773;50.010;19.972;2023-08-06T10:04:14;97331.38;;;21.53;100.00
35655;BME280;21773;50.010;19.972;2023-08-06T10:07:25;97329.63;;;21.49;100.00
35655;BME280;21773;50.010;19.972;2023-08-06T10:10:29;97328.88;;;21.40;100.00
35655;BME280;21773;50.010;19.972;2023-08-06T10:13:34;97341.41;;;21.41;100.00
35655;BME280;21773;50.010;19.972;2023-08-06T10:16:40;97342.09;;;21.38;100.00
35655;BME280;21773;50.010;19.972;2023-08-06T10:19:45;97319.66;;;21.36;100.00
35655;BME280;21773;50.010;19.972;2023-08-06T10:23:01;97319.47;;;21.41;100.00
35655;BME280;21773;50.010;19.972;2023-08-06T10:26:05;97330.81;;;21.39;100.00
35655;BME280;21773;50.010;19.972;2023-08-06T10:29:35;97320.16;;;21.38;100.00
35655;BME280;21773;50.010;19.972;2023-08-06T10:32:47;97327.13;;;21.35;100.00
35655;BME280;21773;50.010;19.972;2023-08-06T10:36:01;97323.72;;;21.38;100.00
35655;BME280;21773;50.010;19.972;2023-08-06T10:39:13;97334.50;;;21.43;100.00
35655;BME280;21773;50.010;19.972;2023-08-06T10:42:31;97338.69;;;21.41;100.00
35655;BME280;21773;50.010;19.972;2023-08-06T10:45:35;97344.78;;;21.46;100.00
35655;BME280;21773;50.010;19.972;2023-08-06T10:48:40;97329.06;;;21.35;100.00
35655;BME280;21773;50.010;19.972;2023-08-06T10:51:46;97319.84;;;21.31;100.00
35655;BME280;21773;50.010;19.972;2023-08-06T10:54:49;97328.69;;;21.36;100.00
35655;BME280;21773;50.010;19.972;2023-08-06T10:57:53;97328.06;;;21.39;100.00
35655;BME280;21773;50.010;19.972;2023-08-06T11:00:58;97326.03;;;21.57;100.00
35655;BME280;21773;50.010;19.972;2023-08-06T11:04:02;97322.66;;;21.51;100.00
35655;BME280;21773;50.010;19.972;2023-08-06T11:07:09;97314.25;;;21.56;100.00
35655;BME280;21773;50.010;19.972;2023-08-06T11:10:13;97317.03;;;21.48;100.00
35655;BME280;21773;50.010;19.972;2023-08-06T11:13:16;97312.38;;;21.48;100.00
35655;BME280;21773;50.010;19.972;2023-08-06T11:16:22;97320.47;;;21.45;100.00
35655;BME280;21773;50.010;19.972;2023-08-06T11:19:26;97321.53;;;21.52;100.00
35655;BME280;21773;50.010;19.972;2023-08-06T11:22:31;97338.97;;;21.48;100.00
35655;BME280;21773;50.010;19.972;2023-08-06T11:25:36;97334.53;;;21.35;100.00
35655;BME280;21773;50.010;19.972;2023-08-06T11:28:40;97349.41;;;21.25;100.00
35655;BME280;21773;50.010;19.972;2023-08-06T11:31:43;97341.00;;;21.30;100.00
35655;BME280;21773;50.010;19.972;2023-08-06T11:34:46;97357.31;;;21.18;100.00
35655;BME280;21773;50.010;19.972;2023-08-06T11:37:51;97347.31;;;21.22;100.00
35655;BME280;21773;50.010;19.972;2023-08-06T11:40:54;97344.38;;;21.27;100.00
35655;BME280;21773;50.010;19.972;2023-08-06T11:43:58;97345.38;;;21.23;100.00
35655;BME280;21773;50.010;19.972;2023-08-06T11:47:03;97351.69;;;21.14;100.00
35655;BME280;21773;50.010;19.972;2023-08-06T11:50:08;97360.88;;;21.18;100.00
35655;BME280;21773;50.010;19.972;2023-08-06T11:53:13;97358.94;;;21.10;100.00
35655;BME280;21773;50.010;19.972;2023-08-06T11:56:17;97371.69;;;21.15;100.00
35655;BME280;21773;50.010;19.972;2023-08-06T11:59:20;97379.59;;;20.82;100.00
35655;BME280;21773;50.010;19.972;2023-08-06T12:02:24;97376.56;;;20.58;100.00
35655;BME280;21773;50.010;19.972;2023-08-06T12:05:31;97372.56;;;20.47;100.00
35655;BME280;21773;50.010;19.972;2023-08-06T12:08:36;97368.50;;;20.44;100.00
35655;BME280;21773;50.010;19.972;2023-08-06T12:11:40;97369.16;;;20.41;100.00
35655;BME280;21773;50.010;19.972;2023-08-06T12:14:43;97376.53;;;20.23;100.00
35655;BME280;21773;50.010;19.972;2023-08-06T12:17:46;97378.78;;;20.21;100.00
35655;BME280;21773;50.010;19.972;2023-08-06T12:20:49;97378.78;;;20.21;100.00
35655;BME280;21773;50.010;19.972;2023-08-06T12:23:54;97403.09;;;20.23;100.00
35655;BME280;21773;50.010;19.972;2023-08-06T12:26:57;97398.25;;;20.28;100.00
35655;BME280;21773;50.010;19.972;2023-08-06T12:30:00;97406.63;;;20.15;100.00
35655;BME280;21773;50.010;19.972;2023-08-06T12:33:06;97409.34;;;20.15;100.00
35655;BME280;21773;50.010;19.972;2023-08-06T12:36:09;97408.38;;;20.11;100.00
35655;BME280;21773;50.010;19.972;2023-08-06T12:39:13;97394.69;;;20.19;100.00
35655;BME280;21773;50.010;19.972;2023-08-06T12:42:17;97390.19;;;20.15;100.00
35655;BME280;21773;50.010;19.972;2023-08-06T12:45:20;97398.75;;;20.22;100.00
35655;BME280;21773;50.010;19.972;2023-08-06T12:48:23;97395.88;;;20.36;100.00
35655;BME280;21773;50.010;19.972;2023-08-06T12:51:27;97404.53;;;20.29;100.00
35655;BME280;21773;50.010;19.972;2023-08-06T12:54:31;97418.28;;;20.38;100.00
35655;BME280;21773;50.010;19.972;2023-08-06T12:57:38;97424.22;;;20.31;100.00
35655;BME280;21773;50.010;19.972;2023-08-06T13:00:58;97429.38;;;20.41;100.00
35655;BME280;21773;50.010;19.972;2023-08-06T13:04:02;97432.06;;;20.24;100.00
35655;BME280;21773;50.010;19.972;2023-08-06T13:07:26;97419.25;;;19.85;100.00
35655;BME280;21773;50.010;19.972;2023-08-06T13:10:31;97455.19;;;20.01;100.00
35655;BME280;21773;50.010;19.972;2023-08-06T13:13:35;97453.03;;;19.89;100.00
35655;BME280;21773;50.010;19.972;2023-08-06T13:16:40;97456.56;;;19.81;100.00
35655;BME280;21773;50.010;19.972;2023-08-06T13:19:44;97469.66;;;19.93;100.00
35655;BME280;21773;50.010;19.972;2023-08-06T13:22:47;97465.28;;;19.92;100.00
35655;BME280;21773;50.010;19.972;2023-08-06T13:25:54;97467.19;;;19.82;100.00
35655;BME280;21773;50.010;19.972;2023-08-06T13:28:58;97471.91;;;19.99;100.00
35655;BME280;21773;50.010;19.972;2023-08-06T13:32:01;97478.53;;;20.07;100.00
35655;BME280;21773;50.010;19.972;2023-08-06T13:35:05;97479.88;;;20.18;100.00
35655;BME280;21773;50.010;19.972;2023-08-06T13:38:08;97486.63;;;20.20;100.00
35655;BME280;21773;50.010;19.972;2023-08-06T13:41:13;97497.59;;;20.29;100.00
35655;BME280;21773;50.010;19.972;2023-08-06T13:44:16;97487.50;;;20.38;100.00
35655;BME280;21773;50.010;19.972;2023-08-06T13:47:19;97494.28;;;20.41;100.00
35655;BME280;21773;50.010;19.972;2023-08-06T13:50:23;97496.34;;;20.35;100.00
35655;BME280;21773;50.010;19.972;2023-08-06T13:53:31;97474.81;;;20.42;100.00
35655;BME280;21773;50.010;19.972;2023-08-06T13:56:35;97462.25;;;20.41;100.00
35655;BME280;21773;50.010;19.972;2023-08-06T13:59:39;97457.91;;;20.57;100.00
35655;BME280;21773;50.010;19.972;2023-08-06T14:02:43;97460.00;;;20.60;100.00
35655;BME280;21773;50.010;19.972;2023-08-06T14:05:47;97479.81;;;20.74;100.00
35655;BME280;21773;50.010;19.972;2023-08-06T14:08:50;97490.13;;;20.69;100.00
35655;BME280;21773;50.010;19.972;2023-08-06T14:11:55;97492.41;;;20.75;100.00
35655;BME280;21773;50.010;19.972;2023-08-06T14:14:58;97480.16;;;20.90;100.00
35655;BME280;21773;50.010;19.972;2023-08-06T14:18:02;97476.44;;;20.95;100.00
35655;BME280;21773;50.010;19.972;2023-08-06T14:21:05;97504.97;;;20.94;100.00
35655;BME280;21773;50.010;19.972;2023-08-06T14:24:09;97508.00;;;20.92;100.00
35655;BME280;21773;50.010;19.972;2023-08-06T14:27:14;97511.41;;;20.89;100.00
35655;BME280;21773;50.010;19.972;2023-08-06T14:30:17;97515.09;;;20.93;100.00
35655;BME280;21773;50.010;19.972;2023-08-06T14:33:20;97517.53;;;20.95;100.00
35655;BME280;21773;50.010;19.972;2023-08-06T14:36:28;97523.63;;;20.92;100.00
35655;BME280;21773;50.010;19.972;2023-08-06T14:39:31;97505.28;;;20.84;100.00
35655;BME280;21773;50.010;19.972;2023-08-06T14:42:36;97508.50;;;20.86;100.00
35655;BME280;21773;50.010;19.972;2023-08-06T14:45:39;97508.50;;;20.94;100.00
35655;BME280;21773;50.010;19.972;2023-08-06T14:48:43;97504.81;;;20.90;100.00
35655;BME280;21773;50.010;19.972;2023-08-06T14:51:46;97493.53;;;21.00;100.00
35655;BME280;21773;50.010;19.972;2023-08-06T14:54:49;97502.06;;;21.16;100.00
35655;BME280;21773;50.010;19.972;2023-08-06T14:57:55;97496.25;;;21.26;100.00
35655;BME280;21773;50.010;19.972;2023-08-06T15:00:58;97498.22;;;21.26;100.00
35655;BME280;21773;50.010;19.972;2023-08-06T15:04:02;97508.53;;;21.29;100.00
35655;BME280;21773;50.010;19.972;2023-08-06T15:07:06;97507.69;;;21.37;100.00
35655;BME280;21773;50.010;19.972;2023-08-06T15:10:11;97470.16;;;21.03;100.00
35655;BME280;21773;50.010;19.972;2023-08-06T15:13:29;97521.06;;;21.47;100.00
35655;BME280;21773;50.010;19.972;2023-08-06T15:16:32;97516.56;;;21.42;100.00
35655;BME280;21773;50.010;19.972;2023-08-06T15:19:36;97530.91;;;21.48;100.00
35655;BME280;21773;50.010;19.972;2023-08-06T15:22:39;97533.34;;;21.32;100.00
35655;BME280;21773;50.010;19.972;2023-08-06T15:25:42;97544.31;;;21.32;100.00
35655;BME280;21773;50.010;19.972;2023-08-06T15:28:47;97554.97;;;21.25;100.00
35655;BME280;21773;50.010;19.972;2023-08-06T15:31:50;97554.78;;;21.04;100.00
35655;BME280;21773;50.010;19.972;2023-08-06T15:34:53;97559.31;;;21.17;100.00
35655;BME280;21773;50.010;19.972;2023-08-06T15:37:56;97561.88;;;21.31;100.00
35655;BME280;21773;50.010;19.972;2023-08-06T15:40:59;97571.88;;;21.18;100.00
35655;BME280;21773;50.010;19.972;2023-08-06T15:44:04;97575.88;;;21.04;100.00
35655;BME280;21773;50.010;19.972;2023-08-06T15:47:07;97575.22;;;21.07;100.00
35655;BME280;21773;50.010;19.972;2023-08-06T15:50:10;97576.66;;;20.87;100.00
35655;BME280;21773;50.010;19.972;2023-08-06T15:53:13;97595.00;;;20.87;100.00